• Join FlightAware (Why Join?)
  • Login
  • US Flag 
08:48PM EDT


 

Airport Tracker/Info


-or-


 

Live Flight TrackerFlight Track Log ✈ QJE1798 ✈ 24-Aug-2013 ✈ YBBN / BNE - YBAS / ASP

Flight Track Log - Related Links

Times and Time Zones

All times are in EDT time to prevent confusion due to time zone crossing. See the QJE1798 flight status page for this flight to view local times or setup timezone preferences in your user account.

Time Position Orientation Groundspeed Altitude Reporting Facility
EDT Latitude Longitude Course Direction KTS MPH feet Rate Location/Type
06:20PM -27.4133 153.1139 207° Southwest 164 189 1,600  Level Aus ATC (RADAR)
06:22PM -27.4649 153.0841 207° Southwest 204 235 3,800 2,040 Climbing Aus ATC (RADAR)
06:23PM -27.4931 153.0253 242° Southwest 251 289 5,900 2,520 Climbing Aus ATC (RADAR)
06:23PM -27.4807 152.9697 284° West 261 300 8,000 3,120 Climbing Aus ATC (RADAR)
06:24PM -27.4699 152.9213 284° West 262 302 9,800 2,400 Climbing Aus ATC (RADAR)
06:24PM -27.4590 152.8719 284° West 269 310 10,800 1,500 Climbing Aus ATC (RADAR)
06:25PM -27.4474 152.8153 283° West 310 357 11,600 1,320 Climbing Aus ATC (RADAR)
06:26PM -27.4336 152.7543 284° West 336 387 12,400 1,800 Climbing Aus ATC (RADAR)
06:27PM -27.4073 152.6204 282° West 367 422 14,800 1,980 Climbing Aus ATC (RADAR)
06:28PM -27.3840 152.5108 283° West 386 444 16,600 1,920 Climbing Aus ATC (RADAR)
06:28PM -27.3664 152.4292 284° West 392 451 17,900 1,740 Climbing Aus ATC (RADAR)
06:29PM -27.3506 152.3564 284° West 402 463 18,800 1,620 Climbing Aus ATC (RADAR)
06:29PM -27.3350 152.2817 283° West 413 475 19,800 1,740 Climbing Aus ATC (RADAR)
06:30PM -27.3216 152.2172 283° West 413 475 20,700 1,740 Climbing Aus ATC (RADAR)
06:31PM -27.3052 152.1414 284° West 418 481 21,700 1,560 Climbing Aus ATC (RADAR)
06:32PM -27.2743 151.9983 284° West 429 494 23,300 1,500 Climbing Aus ATC (RADAR)
06:33PM -27.2480 151.8764 284° West 431 496 24,800 1,560 Climbing Aus ATC (RADAR)
06:33PM -27.2290 151.7875 284° West 427 491 25,800 1,560 Climbing Aus ATC (RADAR)
06:34PM -27.2028 151.6650 284° West 427 491 27,300 1,440 Climbing Aus ATC (RADAR)
06:35PM -27.1823 151.5684 283° West 417 480 28,200 720 Climbing Aus ATC (RADAR)
06:35PM -27.1683 151.5036 284° West 419 482 28,200  Level Aus ATC (RADAR)
06:36PM -27.1530 151.4384 285° West 424 488 28,200  Level Aus ATC (RADAR)
06:37PM -27.1267 151.3186 284° West 423 487 28,200  Level Aus ATC (RADAR)
06:38PM -27.0976 151.1875 284° West 429 494 28,200  Level Aus ATC (RADAR)
06:38PM -27.0780 151.1004 284° West 428 493 28,200  Level Aus ATC (RADAR)
06:39PM -27.0515 150.9795 284° West 432 497 28,200  Level Aus ATC (RADAR)
06:40PM -27.0298 150.8807 284° West 430 495 28,200  Level Aus ATC (RADAR)
06:41PM -27.0025 150.7598 284° West 430 495 28,200  Level Aus ATC (RADAR)
06:42PM -26.9752 150.6377 284° West 439 505 28,200  Level Aus ATC (RADAR)
06:43PM -26.9478 150.5165 284° West 434 499 28,200  Level Aus ATC (RADAR)
06:43PM -26.9281 150.4280 284° West 435 501 28,200  Level Aus ATC (RADAR)
06:44PM -26.8978 150.2958 284° West 434 499 28,200  Level Aus ATC (RADAR)
06:45PM -26.8774 150.2071 284° West 435 501 28,200  Level Aus ATC (RADAR)
06:46PM -26.8471 150.0748 284° West 436 502 28,200  Level Aus ATC (RADAR)
06:48PM -26.7858 149.8096 284° West 437 503 28,200  Level Aus ATC (RADAR)
06:49PM -26.7604 149.6994 284° West 437 503 28,200  Level Aus ATC (RADAR)
06:49PM -26.7449 149.6331 285° West 437 503 28,200  Level Aus ATC (RADAR)
06:50PM -26.7266 149.5556 285° West 439 505 28,200  Level Aus ATC (RADAR)
06:51PM -26.7110 149.4893 285° West 439 505 28,200  Level Aus ATC (RADAR)
06:51PM -26.6930 149.4123 285° West 439 505 28,200  Level Aus ATC (RADAR)
06:52PM -26.6623 149.2802 285° West 438 504 28,200  Level Aus ATC (RADAR)
06:53PM -26.6460 149.2138 285° West 440 506 28,200  Level Aus ATC (RADAR)
06:53PM -26.6279 149.1368 285° West 439 505 28,200 60 Level Aus ATC (RADAR)
06:54PM -26.6098 149.0599 285° West 436 502 28,300 60 Climbing Aus ATC (RADAR)
06:54PM -26.5935 148.9932 285° West 441 507 28,300  Level Aus ATC (RADAR)
06:55PM -26.5755 148.9162 285° West 440 506 28,300  Level Aus ATC (RADAR)
06:55PM -26.5597 148.8504 285° West 437 503 28,300  Level Aus ATC (RADAR)
06:56PM -26.5415 148.7737 285° West 437 503 28,300  Level Aus ATC (RADAR)
06:56PM -26.5326 148.7056 278° West 442 509 28,300  Level Aus ATC (RADAR)
06:58PM -26.5135 148.5507 278° West 434 499 28,300  Level Aus ATC (RADAR)
06:58PM -26.4997 148.4501 279° West 436 502 28,300  Level Aus ATC (RADAR)
06:59PM -26.4864 148.3499 278° West 434 499 28,300  Level Aus ATC (RADAR)
07:00PM -26.4698 148.2284 279° West 431 496 28,300  Level Aus ATC (RADAR)
07:01PM -26.4563 148.1285 279° West 434 499 28,300  Level Aus ATC (RADAR)
07:01PM -26.4460 148.0516 279° West 431 496 28,300  Level Aus ATC (RADAR)
07:03PM -26.4251 147.8967 279° West 433 498 28,300  Level Aus ATC (RADAR)
07:03PM -26.4084 147.7754 279° West 432 497 28,300  Level Aus ATC (RADAR)
07:04PM -26.3965 147.6873 279° West 430 495 28,300  Level Aus ATC (RADAR)
07:05PM -26.3773 147.5452 279° West 429 494 28,300  Level Aus ATC (RADAR)
07:06PM -26.3640 147.4567 280° West 430 495 28,300  Level Aus ATC (RADAR)
07:06PM -26.3557 147.3923 278° West 427 491 28,300  Level Aus ATC (RADAR)
07:07PM -26.3451 147.3258 280° West 429 494 28,300  Level Aus ATC (RADAR)
07:10PM -26.2886 146.9244 279° West 28,000 -120 Descending Aus ATC (Calculated)
07:12PM -26.2612 146.7329 279° West  Level FlightAware Approximate
07:12PM -26.2400 146.5861 279° West 28,000  Level Aus ATC (Calculated)
07:14PM -26.2188 146.4400 279° West  Level FlightAware Approximate
07:15PM -26.2008 146.3166 279° West  Level FlightAware Approximate
07:16PM -26.1826 146.1933 279° West  Level FlightAware Approximate
07:17PM -26.1643 146.0699 279° West  Level FlightAware Approximate
07:18PM -26.1460 145.9466 279° West  Level FlightAware Approximate
07:19PM -26.1275 145.8234 279° West  Level FlightAware Approximate
07:20PM -26.1089 145.7001 280° West  Level FlightAware Approximate
07:21PM -26.0902 145.5770 280° West  Level FlightAware Approximate
07:22PM -26.0714 145.4538 280° West  Level FlightAware Approximate
07:22PM -26.0528 145.3326 280° West 28,000  Level Aus ATC (Calculated)
07:23PM -26.0526 145.3307 280° West  Level FlightAware Approximate
07:24PM -26.0234 145.1419 280° West  Level FlightAware Approximate
07:25PM -26.0042 145.0189 280° West  Level FlightAware Approximate
07:26PM -25.9849 144.8959 280° West  Level FlightAware Approximate
07:27PM -25.9656 144.7730 280° West  Level FlightAware Approximate
07:27PM -25.9704 144.8069 279° West 28,000  Level Aus ATC (Calculated)
07:29PM -25.9349 144.5626 279° West  Level FlightAware Approximate
07:30PM -25.9528 144.6857 99° East  Level FlightAware Approximate
07:30PM -25.9152 144.4622 360° North 28,000  Level Aus ATC (Calculated)
07:30PM -25.9152 144.4622 280° West 28,000  Level Aus ATC (Calculated)
07:32PM -25.8836 144.2671 280° West  Level Estimated
07:33PM -25.8637 144.1452 280° West  Level FlightAware Approximate
07:33PM -25.8474 144.0463 280° West 28,000  Level Aus ATC (Calculated)
07:35PM -25.8156 143.8534 280° West  Level FlightAware Approximate
07:36PM -25.7954 143.7316 280° West  Level FlightAware Approximate
07:37PM -25.7750 143.6099 280° West  Level FlightAware Approximate
07:38PM -25.7546 143.4882 281° West  Level FlightAware Approximate
07:39PM -25.7340 143.3666 281° West  Level FlightAware Approximate
07:40PM -25.7134 143.2450 281° West  Level FlightAware Approximate
07:41PM -25.6926 143.1234 281° West  Level FlightAware Approximate
07:41PM -25.6796 143.0473 281° West 28,000  Level Aus ATC (Calculated)
07:42PM -25.6718 143.0019 281° West  Level FlightAware Approximate
07:43PM -25.6447 142.8448 281° West  Level FlightAware Approximate
07:44PM -25.6236 142.7234 281° West  Level FlightAware Approximate
07:45PM -25.6024 142.6020 281° West  Level FlightAware Approximate
07:46PM -25.5811 142.4807 281° West  Level FlightAware Approximate
07:47PM -25.5597 142.3594 281° West  Level FlightAware Approximate
07:48PM -25.5383 142.2382 281° West  Level FlightAware Approximate
07:49PM -25.5167 142.1170 281° West  Level FlightAware Approximate
07:50PM -25.4950 141.9958 281° West  Level FlightAware Approximate
07:51PM -25.4732 141.8747 281° West  Level FlightAware Approximate
07:52PM -25.4513 141.7536 281° West  Level FlightAware Approximate
07:53PM -25.4294 141.6326 281° West  Level FlightAware Approximate
07:53PM -25.4166 141.5626 281° West 28,000  Level Aus ATC (Calculated)
07:54PM -25.3977 141.4589 281° West 28,000  Level Aus ATC (Calculated)
07:55PM -25.3691 141.3035 282° West 28,000  Level Aus ATC (Calculated)
07:56PM -25.3542 141.2228 281° West  Level FlightAware Approximate
07:56PM -25.3547 141.2258 282° West 28,000  Level Aus ATC (Calculated)
07:57PM -25.3200 141.0389 281° West 32,000 2,580 Climbing Aus ATC (Calculated)
07:58PM -25.3184 141.0303 282° West  Level FlightAware Approximate
07:59PM -25.3436 141.1657 102° East  Level FlightAware Approximate
07:59PM -25.2893 140.8751 282° West 32,000  Level Aus ATC (Calculated)
08:00PM -25.2688 140.7660 102° East 32,000  Level Aus ATC (Calculated)
08:02PM -25.3101 140.9862 102° East  Level FlightAware Approximate
08:03PM -25.3334 141.1109 102° East  Level FlightAware Approximate
08:04PM -25.3387 141.1394 282° West  Level FlightAware Approximate
08:05PM -25.3155 141.0147 282° West  Level FlightAware Approximate
08:05PM -25.1649 140.2210 282° West 32,000  Level Aus ATC (Calculated)
08:06PM -25.1408 140.0966 282° West  Level FlightAware Approximate
08:06PM -25.1438 140.1121 282° West 32,000  Level Aus ATC (Calculated)
08:08PM -25.0967 139.8697 282° West  Level FlightAware Approximate
08:09PM -25.0724 139.7455 282° West  Level FlightAware Approximate
08:10PM -25.0480 139.6213 282° West  Level FlightAware Approximate
08:11PM -25.0235 139.4972 282° West  Level FlightAware Approximate
08:12PM -24.9989 139.3732 282° West  Level FlightAware Approximate
08:13PM -24.9741 139.2491 282° West  Level FlightAware Approximate
08:14PM -24.9493 139.1252 282° West  Level FlightAware Approximate
08:15PM -24.9244 139.0012 282° West  Level FlightAware Approximate
08:16PM -24.8994 138.8774 283° West  Level FlightAware Approximate
08:17PM -24.8742 138.7536 283° West  Level FlightAware Approximate
08:18PM -24.8490 138.6298 283° West  Level FlightAware Approximate
08:18PM -24.8633 138.6999 283° West 32,000  Level Aus ATC (Calculated)
08:20PM -24.8165 138.4710 283° West  Level FlightAware Approximate
08:20PM -24.8190 138.4832 283° West 32,000  Level Aus ATC (Calculated)
08:21PM -24.7855 138.3208 283° West 32,000  Level Aus ATC (Calculated)
08:22PM -24.7519 138.1584 360° North 32,000  Level Aus ATC (Calculated)
08:22PM -24.7519 138.1584 283° West 32,000  Level Aus ATC (Calculated)
08:23PM -24.7293 138.0503 283° West 32,000  Level Aus ATC (Calculated)
08:24PM -24.7197 138.0040 283° West  Level FlightAware Approximate
08:25PM -24.6945 137.8836 283° West  Level FlightAware Approximate
08:26PM -24.6685 137.7602 283° West  Level FlightAware Approximate
08:27PM -24.6425 137.6368 283° West  Level FlightAware Approximate
08:28PM -24.6685 137.7602 103° East  Level FlightAware Approximate
08:28PM -24.6016 137.4442 103° East 32,000  Level Aus ATC (Calculated)
08:29PM -24.6425 137.6368 283° West  Level FlightAware Approximate
08:30PM -24.6330 137.5922 103° East  Level FlightAware Approximate
08:31PM -24.6591 137.7155 103° East  Level FlightAware Approximate
08:32PM -24.6330 137.5922 283° West  Level FlightAware Approximate
08:33PM -24.6591 137.7155 103° East  Level FlightAware Approximate
08:34PM -24.6330 137.5922 283° West  Level FlightAware Approximate
08:35PM -24.6330 137.5920 283° West  Level FlightAware Approximate
08:36PM -24.6068 137.4687 283° West  Level FlightAware Approximate
08:37PM -24.5805 137.3455 283° West  Level FlightAware Approximate
08:38PM -24.5541 137.2223 283° West  Level FlightAware Approximate
08:39PM -24.5276 137.0992 283° West  Level FlightAware Approximate
08:39PM -24.3374 136.2235 104° East  Level Aus ATC (Calculated)
08:41PM -24.3857 136.4447 104° East  Level FlightAware Approximate
08:42PM -24.3588 136.3218 284° West  Level Estimated
08:43PM -24.3314 136.1991 284° West  Level FlightAware Approximate
08:44PM -24.3040 136.0764 284° West  Level FlightAware Approximate
08:45PM -24.2764 135.9539 284° West  Level FlightAware Approximate
08:46PM -24.2487 135.8313 284° West  Level FlightAware Approximate
08:47PM -24.2209 135.7088 284° West  Level FlightAware Approximate
08:47PM -24.1510 135.4066 284° West 900  Level Aus ATC (Calculated)
08:48PM -24.1230 135.2843 284° West  Level FlightAware Approximate
08:49PM -24.0949 135.1620 284° West  Level FlightAware Approximate
08:49PM -24.1178 135.2385 284° West  Level Aus ATC (Calculated)
08:50PM -24.0892 135.1164 284° West  Level FlightAware Approximate
08:51PM -24.0605 134.9944 284° West  Level FlightAware Approximate
08:51PM -24.0772 135.0598 284° West  Level Aus ATC (Calculated)
08:51PM -24.0364 134.8812 285° West  Level Aus ATC (Calculated)
08:53PM -24.0062 134.7553 285° West  Level FlightAware Approximate
08:54PM -23.9769 134.6334 285° West  Level FlightAware Approximate
08:55PM -23.9475 134.5117 285° West  Level FlightAware Approximate
08:55PM -23.9632 134.5964 284° West 900  Level Aus ATC (Calculated)
08:57PM -23.9130 134.3830 284° West  Level FlightAware Approximate
08:57PM -23.8997 134.3269 285° West 900  Level Aus ATC (Calculated)
08:59PM -23.8495 134.1157 285° West  Level FlightAware Approximate